sensor_id;sensor_type;location;lat;lon;timestamp;P1;durP1;ratioP1;P2;durP2;ratioP2
49183;SDS011;35021;49.214;12.270;2022-08-25T00:01:13;4.75;;;4.28;;
49183;SDS011;35021;49.214;12.270;2022-08-25T00:03:43;4.43;;;4.03;;
49183;SDS011;35021;49.214;12.270;2022-08-25T00:06:10;4.13;;;3.75;;
49183;SDS011;35021;49.214;12.270;2022-08-25T00:08:38;4.05;;;3.67;;
49183;SDS011;35021;49.214;12.270;2022-08-25T00:11:13;4.53;;;4.13;;
49183;SDS011;35021;49.214;12.270;2022-08-25T00:13:45;4.43;;;4.03;;
49183;SDS011;35021;49.214;12.270;2022-08-25T00:16:15;4.53;;;4.13;;
49183;SDS011;35021;49.214;12.270;2022-08-25T00:18:45;4.38;;;3.97;;
49183;SDS011;35021;49.214;12.270;2022-08-25T00:21:14;4.57;;;3.90;;
49183;SDS011;35021;49.214;12.270;2022-08-25T00:23:41;4.68;;;4.15;;
49183;SDS011;35021;49.214;12.270;2022-08-25T00:26:08;4.10;;;3.75;;
49183;SDS011;35021;49.214;12.270;2022-08-25T00:28:36;4.18;;;3.78;;
49183;SDS011;35021;49.214;12.270;2022-08-25T00:31:05;5.25;;;3.95;;
49183;SDS011;35021;49.214;12.270;2022-08-25T00:33:36;4.63;;;4.22;;
49183;SDS011;35021;49.214;12.270;2022-08-25T00:36:03;4.70;;;3.95;;
49183;SDS011;35021;49.214;12.270;2022-08-25T00:38:30;4.53;;;3.75;;
49183;SDS011;35021;49.214;12.270;2022-08-25T00:40:57;6.07;;;4.07;;
49183;SDS011;35021;49.214;12.270;2022-08-25T00:43:46;4.40;;;3.92;;
49183;SDS011;35021;49.214;12.270;2022-08-25T00:46:19;4.47;;;3.97;;
49183;SDS011;35021;49.214;12.270;2022-08-25T00:48:50;4.07;;;3.70;;
49183;SDS011;35021;49.214;12.270;2022-08-25T00:51:25;4.45;;;4.05;;
49183;SDS011;35021;49.214;12.270;2022-08-25T00:53:57;4.53;;;4.10;;
49183;SDS011;35021;49.214;12.270;2022-08-25T00:56:24;4.60;;;4.05;;
49183;SDS011;35021;49.214;12.270;2022-08-25T00:58:54;4.38;;;3.97;;
49183;SDS011;35021;49.214;12.270;2022-08-25T01:01:21;4.78;;;3.40;;
49183;SDS011;35021;49.214;12.270;2022-08-25T01:03:49;3.72;;;3.42;;
49183;SDS011;35021;49.214;12.270;2022-08-25T01:06:16;4.55;;;4.15;;
49183;SDS011;35021;49.214;12.270;2022-08-25T01:08:43;4.10;;;3.72;;
49183;SDS011;35021;49.214;12.270;2022-08-25T01:11:10;5.18;;;4.20;;
49183;SDS011;35021;49.214;12.270;2022-08-25T01:13:42;4.88;;;4.15;;
49183;SDS011;35021;49.214;12.270;2022-08-25T01:16:12;4.68;;;4.28;;
49183;SDS011;35021;49.214;12.270;2022-08-25T01:18:42;4.32;;;3.92;;
49183;SDS011;35021;49.214;12.270;2022-08-25T01:21:20;4.25;;;3.85;;
49183;SDS011;35021;49.214;12.270;2022-08-25T01:23:49;4.75;;;3.95;;
49183;SDS011;35021;49.214;12.270;2022-08-25T01:26:19;3.70;;;3.40;;
49183;SDS011;35021;49.214;12.270;2022-08-25T01:28:56;4.00;;;3.63;;
49183;SDS011;35021;49.214;12.270;2022-08-25T01:31:48;3.90;;;3.17;;
49183;SDS011;35021;49.214;12.270;2022-08-25T01:34:17;3.92;;;3.45;;
49183;SDS011;35021;49.214;12.270;2022-08-25T01:36:44;3.90;;;3.35;;
49183;SDS011;35021;49.214;12.270;2022-08-25T01:39:12;4.13;;;3.65;;
49183;SDS011;35021;49.214;12.270;2022-08-25T01:44:32;4.40;;;4.00;;
49183;SDS011;35021;49.214;12.270;2022-08-25T01:47:02;5.13;;;3.60;;
49183;SDS011;35021;49.214;12.270;2022-08-25T01:49:29;4.25;;;3.85;;
49183;SDS011;35021;49.214;12.270;2022-08-25T01:52:19;4.45;;;4.05;;
49183;SDS011;35021;49.214;12.270;2022-08-25T01:54:47;5.93;;;3.75;;
49183;SDS011;35021;49.214;12.270;2022-08-25T01:57:14;6.28;;;3.40;;
49183;SDS011;35021;49.214;12.270;2022-08-25T01:59:41;3.72;;;3.42;;
49183;SDS011;35021;49.214;12.270;2022-08-25T02:02:08;4.13;;;3.80;;
49183;SDS011;35021;49.214;12.270;2022-08-25T02:04:35;4.10;;;3.80;;
49183;SDS011;35021;49.214;12.270;2022-08-25T02:07:03;4.28;;;3.88;;
49183;SDS011;35021;49.214;12.270;2022-08-25T02:09:32;3.55;;;3.25;;
49183;SDS011;35021;49.214;12.270;2022-08-25T02:11:59;3.75;;;3.45;;
49183;SDS011;35021;49.214;12.270;2022-08-25T02:14:27;3.78;;;3.28;;
49183;SDS011;35021;49.214;12.270;2022-08-25T02:16:54;4.10;;;3.70;;
49183;SDS011;35021;49.214;12.270;2022-08-25T02:19:23;4.25;;;3.75;;
49183;SDS011;35021;49.214;12.270;2022-08-25T02:21:51;4.07;;;3.55;;
49183;SDS011;35021;49.214;12.270;2022-08-25T02:24:18;3.55;;;3.17;;
49183;SDS011;35021;49.214;12.270;2022-08-25T02:26:45;3.60;;;3.30;;
49183;SDS011;35021;49.214;12.270;2022-08-25T02:29:12;5.07;;;3.83;;
49183;SDS011;35021;49.214;12.270;2022-08-25T02:31:39;4.03;;;3.70;;
49183;SDS011;35021;49.214;12.270;2022-08-25T02:34:07;4.22;;;3.78;;
49183;SDS011;35021;49.214;12.270;2022-08-25T02:36:35;4.22;;;3.83;;
49183;SDS011;35021;49.214;12.270;2022-08-25T02:39:04;4.53;;;4.13;;
49183;SDS011;35021;49.214;12.270;2022-08-25T02:41:32;4.32;;;3.90;;
49183;SDS011;35021;49.214;12.270;2022-08-25T02:44:00;4.25;;;3.85;;
49183;SDS011;35021;49.214;12.270;2022-08-25T02:46:28;4.50;;;4.10;;
49183;SDS011;35021;49.214;12.270;2022-08-25T02:48:56;4.55;;;4.15;;
49183;SDS011;35021;49.214;12.270;2022-08-25T02:51:23;5.07;;;4.05;;
49183;SDS011;35021;49.214;12.270;2022-08-25T02:53:54;4.15;;;3.75;;
49183;SDS011;35021;49.214;12.270;2022-08-25T02:56:23;4.93;;;4.05;;
49183;SDS011;35021;49.214;12.270;2022-08-25T02:58:51;3.95;;;3.55;;
49183;SDS011;35021;49.214;12.270;2022-08-25T03:01:18;4.15;;;3.78;;
49183;SDS011;35021;49.214;12.270;2022-08-25T03:03:53;6.10;;;3.83;;
49183;SDS011;35021;49.214;12.270;2022-08-25T03:06:21;4.40;;;3.97;;
49183;SDS011;35021;49.214;12.270;2022-08-25T03:08:49;5.13;;;3.67;;
49183;SDS011;35021;49.214;12.270;2022-08-25T03:11:18;4.38;;;3.78;;
49183;SDS011;35021;49.214;12.270;2022-08-25T03:13:46;4.35;;;3.95;;
49183;SDS011;35021;49.214;12.270;2022-08-25T03:16:16;4.30;;;3.40;;
49183;SDS011;35021;49.214;12.270;2022-08-25T03:18:44;5.90;;;4.38;;
49183;SDS011;35021;49.214;12.270;2022-08-25T03:21:12;4.35;;;3.75;;
49183;SDS011;35021;49.214;12.270;2022-08-25T03:23:41;4.95;;;4.00;;
49183;SDS011;35021;49.214;12.270;2022-08-25T03:26:08;4.18;;;3.78;;
49183;SDS011;35021;49.214;12.270;2022-08-25T03:28:54;4.20;;;3.85;;
49183;SDS011;35021;49.214;12.270;2022-08-25T03:31:21;5.07;;;4.57;;
49183;SDS011;35021;49.214;12.270;2022-08-25T03:33:51;4.63;;;4.22;;
49183;SDS011;35021;49.214;12.270;2022-08-25T03:36:19;4.65;;;3.92;;
49183;SDS011;35021;49.214;12.270;2022-08-25T03:38:47;5.63;;;4.47;;
49183;SDS011;35021;49.214;12.270;2022-08-25T03:41:15;4.93;;;4.15;;
49183;SDS011;35021;49.214;12.270;2022-08-25T03:43:58;4.88;;;4.38;;
49183;SDS011;35021;49.214;12.270;2022-08-25T03:46:28;4.40;;;4.00;;
49183;SDS011;35021;49.214;12.270;2022-08-25T03:48:56;3.97;;;3.58;;
49183;SDS011;35021;49.214;12.270;2022-08-25T03:51:36;5.05;;;4.43;;
49183;SDS011;35021;49.214;12.270;2022-08-25T03:54:09;7.30;;;4.60;;
49183;SDS011;35021;49.214;12.270;2022-08-25T03:56:36;4.88;;;4.25;;
49183;SDS011;35021;49.214;12.270;2022-08-25T03:59:03;4.80;;;4.40;;
49183;SDS011;35021;49.214;12.270;2022-08-25T04:01:31;4.72;;;4.22;;
49183;SDS011;35021;49.214;12.270;2022-08-25T04:03:58;4.50;;;4.10;;
49183;SDS011;35021;49.214;12.270;2022-08-25T04:06:25;7.00;;;4.95;;
49183;SDS011;35021;49.214;12.270;2022-08-25T04:08:51;4.78;;;4.30;;
49183;SDS011;35021;49.214;12.270;2022-08-25T04:11:19;5.18;;;4.43;;
49183;SDS011;35021;49.214;12.270;2022-08-25T04:13:48;3.97;;;3.65;;
49183;SDS011;35021;49.214;12.270;2022-08-25T04:16:16;5.50;;;4.60;;
49183;SDS011;35021;49.214;12.270;2022-08-25T04:18:46;4.88;;;4.20;;
49183;SDS011;35021;49.214;12.270;2022-08-25T04:21:13;5.78;;;5.00;;
49183;SDS011;35021;49.214;12.270;2022-08-25T04:23:41;6.03;;;5.05;;
49183;SDS011;35021;49.214;12.270;2022-08-25T04:26:10;5.68;;;4.63;;
49183;SDS011;35021;49.214;12.270;2022-08-25T04:28:40;6.05;;;5.40;;
49183;SDS011;35021;49.214;12.270;2022-08-25T04:31:07;8.18;;;5.72;;
49183;SDS011;35021;49.214;12.270;2022-08-25T04:33:36;5.55;;;5.05;;
49183;SDS011;35021;49.214;12.270;2022-08-25T04:36:04;6.45;;;5.30;;
49183;SDS011;35021;49.214;12.270;2022-08-25T04:38:38;6.05;;;5.45;;
49183;SDS011;35021;49.214;12.270;2022-08-25T04:41:06;5.97;;;5.38;;
49183;SDS011;35021;49.214;12.270;2022-08-25T04:43:35;5.47;;;4.97;;
49183;SDS011;35021;49.214;12.270;2022-08-25T04:46:07;6.55;;;5.53;;
49183;SDS011;35021;49.214;12.270;2022-08-25T04:48:37;6.85;;;5.20;;
49183;SDS011;35021;49.214;12.270;2022-08-25T04:51:06;5.75;;;5.15;;
49183;SDS011;35021;49.214;12.270;2022-08-25T04:53:36;8.05;;;5.88;;
49183;SDS011;35021;49.214;12.270;2022-08-25T04:56:11;7.68;;;5.13;;
49183;SDS011;35021;49.214;12.270;2022-08-25T04:58:40;6.88;;;5.18;;
49183;SDS011;35021;49.214;12.270;2022-08-25T05:01:08;6.65;;;5.47;;
49183;SDS011;35021;49.214;12.270;2022-08-25T05:03:37;5.85;;;5.22;;
49183;SDS011;35021;49.214;12.270;2022-08-25T05:06:04;7.85;;;5.53;;
49183;SDS011;35021;49.214;12.270;2022-08-25T05:08:31;7.00;;;5.28;;
49183;SDS011;35021;49.214;12.270;2022-08-25T05:11:03;6.93;;;5.45;;
49183;SDS011;35021;49.214;12.270;2022-08-25T05:13:34;6.00;;;5.40;;
49183;SDS011;35021;49.214;12.270;2022-08-25T05:16:02;6.88;;;5.18;;
49183;SDS011;35021;49.214;12.270;2022-08-25T05:18:35;5.63;;;5.13;;
49183;SDS011;35021;49.214;12.270;2022-08-25T05:21:06;5.00;;;4.60;;
49183;SDS011;35021;49.214;12.270;2022-08-25T05:23:36;5.82;;;5.05;;
49183;SDS011;35021;49.214;12.270;2022-08-25T05:26:08;5.25;;;4.75;;
49183;SDS011;35021;49.214;12.270;2022-08-25T05:28:39;7.57;;;4.90;;
49183;SDS011;35021;49.214;12.270;2022-08-25T05:31:08;6.03;;;4.82;;
49183;SDS011;35021;49.214;12.270;2022-08-25T05:33:37;6.18;;;5.53;;
49183;SDS011;35021;49.214;12.270;2022-08-25T05:36:05;5.05;;;4.53;;
49183;SDS011;35021;49.214;12.270;2022-08-25T05:38:33;5.93;;;5.32;;
49183;SDS011;35021;49.214;12.270;2022-08-25T05:41:01;6.25;;;4.78;;
49183;SDS011;35021;49.214;12.270;2022-08-25T05:43:30;5.70;;;5.10;;
49183;SDS011;35021;49.214;12.270;2022-08-25T05:45:57;5.70;;;5.10;;
49183;SDS011;35021;49.214;12.270;2022-08-25T05:48:25;5.38;;;4.88;;
49183;SDS011;35021;49.214;12.270;2022-08-25T05:50:53;5.70;;;4.88;;
49183;SDS011;35021;49.214;12.270;2022-08-25T05:53:21;6.32;;;4.78;;
49183;SDS011;35021;49.214;12.270;2022-08-25T05:55:49;5.38;;;4.63;;
49183;SDS011;35021;49.214;12.270;2022-08-25T05:58:17;5.30;;;4.70;;
49183;SDS011;35021;49.214;12.270;2022-08-25T06:00:44;6.72;;;5.50;;
49183;SDS011;35021;49.214;12.270;2022-08-25T06:03:11;5.18;;;4.68;;
49183;SDS011;35021;49.214;12.270;2022-08-25T06:05:38;6.05;;;5.40;;
49183;SDS011;35021;49.214;12.270;2022-08-25T06:08:06;6.10;;;5.22;;
49183;SDS011;35021;49.214;12.270;2022-08-25T06:10:33;5.45;;;4.95;;
49183;SDS011;35021;49.214;12.270;2022-08-25T06:13:00;5.43;;;4.93;;
49183;SDS011;35021;49.214;12.270;2022-08-25T06:15:31;5.75;;;5.25;;
49183;SDS011;35021;49.214;12.270;2022-08-25T06:17:59;6.38;;;5.40;;
49183;SDS011;35021;49.214;12.270;2022-08-25T06:20:29;5.75;;;5.05;;
49183;SDS011;35021;49.214;12.270;2022-08-25T06:22:57;5.53;;;4.80;;
49183;SDS011;35021;49.214;12.270;2022-08-25T06:25:25;6.10;;;5.50;;
49183;SDS011;35021;49.214;12.270;2022-08-25T06:27:53;6.50;;;5.82;;
49183;SDS011;35021;49.214;12.270;2022-08-25T06:30:22;6.45;;;5.07;;
49183;SDS011;35021;49.214;12.270;2022-08-25T06:32:54;5.53;;;5.00;;
49183;SDS011;35021;49.214;12.270;2022-08-25T06:35:21;6.60;;;5.22;;
49183;SDS011;35021;49.214;12.270;2022-08-25T06:37:48;6.05;;;5.45;;
49183;SDS011;35021;49.214;12.270;2022-08-25T06:40:15;5.55;;;5.00;;
49183;SDS011;35021;49.214;12.270;2022-08-25T06:42:45;5.90;;;5.40;;
49183;SDS011;35021;49.214;12.270;2022-08-25T06:45:13;6.60;;;5.63;;
49183;SDS011;35021;49.214;12.270;2022-08-25T06:47:40;6.00;;;5.28;;
49183;SDS011;35021;49.214;12.270;2022-08-25T06:50:10;7.70;;;5.65;;
49183;SDS011;35021;49.214;12.270;2022-08-25T06:52:37;8.38;;;5.70;;
49183;SDS011;35021;49.214;12.270;2022-08-25T06:55:04;6.78;;;4.97;;
49183;SDS011;35021;49.214;12.270;2022-08-25T06:57:32;6.55;;;5.50;;
49183;SDS011;35021;49.214;12.270;2022-08-25T07:00:03;5.78;;;5.13;;
49183;SDS011;35021;49.214;12.270;2022-08-25T07:02:32;5.82;;;5.30;;
49183;SDS011;35021;49.214;12.270;2022-08-25T07:05:01;6.53;;;5.85;;
49183;SDS011;35021;49.214;12.270;2022-08-25T07:07:29;8.20;;;6.38;;
49183;SDS011;35021;49.214;12.270;2022-08-25T07:10:09;6.38;;;5.78;;
49183;SDS011;35021;49.214;12.270;2022-08-25T07:12:36;6.63;;;5.90;;
49183;SDS011;35021;49.214;12.270;2022-08-25T07:15:03;6.70;;;6.10;;
49183;SDS011;35021;49.214;12.270;2022-08-25T07:17:46;6.05;;;5.55;;
49183;SDS011;35021;49.214;12.270;2022-08-25T07:20:15;6.47;;;5.88;;
49183;SDS011;35021;49.214;12.270;2022-08-25T07:22:45;6.45;;;5.85;;
49183;SDS011;35021;49.214;12.270;2022-08-25T07:25:12;6.50;;;5.90;;
49183;SDS011;35021;49.214;12.270;2022-08-25T07:27:40;5.95;;;5.43;;
49183;SDS011;35021;49.214;12.270;2022-08-25T07:30:08;5.78;;;5.28;;
49183;SDS011;35021;49.214;12.270;2022-08-25T07:32:36;6.28;;;5.68;;
49183;SDS011;35021;49.214;12.270;2022-08-25T07:35:08;8.32;;;6.38;;
49183;SDS011;35021;49.214;12.270;2022-08-25T07:37:53;6.47;;;5.88;;
49183;SDS011;35021;49.214;12.270;2022-08-25T07:40:24;6.60;;;6.00;;
49183;SDS011;35021;49.214;12.270;2022-08-25T07:42:59;7.43;;;6.70;;
49183;SDS011;35021;49.214;12.270;2022-08-25T07:45:31;7.70;;;5.47;;
49183;SDS011;35021;49.214;12.270;2022-08-25T07:48:07;7.25;;;6.50;;
49183;SDS011;35021;49.214;12.270;2022-08-25T07:50:36;7.80;;;6.45;;
49183;SDS011;35021;49.214;12.270;2022-08-25T07:53:07;6.45;;;5.90;;
49183;SDS011;35021;49.214;12.270;2022-08-25T07:55:35;7.07;;;6.30;;
49183;SDS011;35021;49.214;12.270;2022-08-25T07:58:04;7.38;;;6.68;;
49183;SDS011;35021;49.214;12.270;2022-08-25T08:00:33;6.65;;;6.05;;
49183;SDS011;35021;49.214;12.270;2022-08-25T08:03:06;8.07;;;6.90;;
49183;SDS011;35021;49.214;12.270;2022-08-25T08:05:49;7.28;;;6.50;;
49183;SDS011;35021;49.214;12.270;2022-08-25T08:08:16;6.53;;;5.93;;
49183;SDS011;35021;49.214;12.270;2022-08-25T08:10:44;7.55;;;6.85;;
49183;SDS011;35021;49.214;12.270;2022-08-25T08:13:31;7.45;;;6.28;;
49183;SDS011;35021;49.214;12.270;2022-08-25T08:16:07;6.88;;;6.20;;
49183;SDS011;35021;49.214;12.270;2022-08-25T08:18:36;8.45;;;6.15;;
49183;SDS011;35021;49.214;12.270;2022-08-25T08:21:03;6.88;;;6.28;;
49183;SDS011;35021;49.214;12.270;2022-08-25T08:23:35;8.02;;;7.22;;
49183;SDS011;35021;49.214;12.270;2022-08-25T08:26:02;7.38;;;6.68;;
49183;SDS011;35021;49.214;12.270;2022-08-25T08:28:30;10.73;;;7.35;;
49183;SDS011;35021;49.214;12.270;2022-08-25T08:30:57;7.05;;;6.45;;
49183;SDS011;35021;49.214;12.270;2022-08-25T08:33:24;7.35;;;6.47;;
49183;SDS011;35021;49.214;12.270;2022-08-25T08:36:00;7.35;;;6.65;;
49183;SDS011;35021;49.214;12.270;2022-08-25T08:38:32;7.30;;;6.60;;
49183;SDS011;35021;49.214;12.270;2022-08-25T08:41:11;8.10;;;6.63;;
49183;SDS011;35021;49.214;12.270;2022-08-25T08:49:54;8.80;;;8.00;;
49183;SDS011;35021;49.214;12.270;2022-08-25T08:55:10;8.50;;;6.95;;
49183;SDS011;35021;49.214;12.270;2022-08-25T08:57:47;8.02;;;7.32;;
49183;SDS011;35021;49.214;12.270;2022-08-25T09:00:16;7.53;;;6.88;;
49183;SDS011;35021;49.214;12.270;2022-08-25T09:20:13;9.75;;;8.75;;
49183;SDS011;35021;49.214;12.270;2022-08-25T09:33:56;8.90;;;8.10;;
49183;SDS011;35021;49.214;12.270;2022-08-25T09:36:25;10.30;;;8.50;;
49183;SDS011;35021;49.214;12.270;2022-08-25T09:38:54;8.50;;;7.60;;
49183;SDS011;35021;49.214;12.270;2022-08-25T09:44:16;8.68;;;7.32;;
49183;SDS011;35021;49.214;12.270;2022-08-25T09:49:31;8.65;;;7.82;;
49183;SDS011;35021;49.214;12.270;2022-08-25T09:54:54;8.60;;;7.78;;
49183;SDS011;35021;49.214;12.270;2022-08-25T09:57:27;9.30;;;8.40;;
49183;SDS011;35021;49.214;12.270;2022-08-25T09:59:54;8.90;;;8.00;;
49183;SDS011;35021;49.214;12.270;2022-08-25T10:02:24;7.85;;;7.15;;
49183;SDS011;35021;49.214;12.270;2022-08-25T10:04:53;9.18;;;7.95;;
49183;SDS011;35021;49.214;12.270;2022-08-25T10:07:26;8.07;;;7.28;;
49183;SDS011;35021;49.214;12.270;2022-08-25T10:10:02;8.30;;;7.50;;
49183;SDS011;35021;49.214;12.270;2022-08-25T10:12:39;8.05;;;7.35;;
49183;SDS011;35021;49.214;12.270;2022-08-25T10:17:55;9.50;;;7.40;;
49183;SDS011;35021;49.214;12.270;2022-08-25T10:20:42;7.80;;;7.10;;
49183;SDS011;35021;49.214;12.270;2022-08-25T10:23:11;8.38;;;7.53;;
49183;SDS011;35021;49.214;12.270;2022-08-25T10:25:41;7.43;;;6.72;;
49183;SDS011;35021;49.214;12.270;2022-08-25T10:38:56;7.35;;;6.07;;
49183;SDS011;35021;49.214;12.270;2022-08-25T10:44:56;7.35;;;6.50;;
49183;SDS011;35021;49.214;12.270;2022-08-25T10:50:28;6.97;;;6.38;;
49183;SDS011;35021;49.214;12.270;2022-08-25T10:53:14;7.53;;;6.53;;
49183;SDS011;35021;49.214;12.270;2022-08-25T10:58:23;7.65;;;6.63;;
49183;SDS011;35021;49.214;12.270;2022-08-25T11:01:14;7.35;;;6.53;;
49183;SDS011;35021;49.214;12.270;2022-08-25T11:06:36;6.95;;;6.22;;
49183;SDS011;35021;49.214;12.270;2022-08-25T11:09:10;6.90;;;6.03;;
49183;SDS011;35021;49.214;12.270;2022-08-25T11:11:44;8.68;;;6.43;;
49183;SDS011;35021;49.214;12.270;2022-08-25T11:14:15;7.18;;;5.97;;
49183;SDS011;35021;49.214;12.270;2022-08-25T11:16:54;6.97;;;5.40;;
49183;SDS011;35021;49.214;12.270;2022-08-25T11:19:32;7.50;;;5.55;;
49183;SDS011;35021;49.214;12.270;2022-08-25T11:24:54;7.35;;;5.93;;
49183;SDS011;35021;49.214;12.270;2022-08-25T11:27:36;6.63;;;5.95;;
49183;SDS011;35021;49.214;12.270;2022-08-25T11:30:23;6.55;;;5.85;;
49183;SDS011;35021;49.214;12.270;2022-08-25T11:32:52;6.40;;;5.72;;
49183;SDS011;35021;49.214;12.270;2022-08-25T11:35:37;6.65;;;5.93;;
49183;SDS011;35021;49.214;12.270;2022-08-25T11:41:13;8.45;;;5.75;;
49183;SDS011;35021;49.214;12.270;2022-08-25T11:55:45;6.15;;;5.30;;
49183;SDS011;35021;49.214;12.270;2022-08-25T12:00:56;7.90;;;6.20;;
49183;SDS011;35021;49.214;12.270;2022-08-25T12:11:41;5.75;;;5.25;;
49183;SDS011;35021;49.214;12.270;2022-08-25T12:19:46;6.10;;;5.50;;
49183;SDS011;35021;49.214;12.270;2022-08-25T12:24:49;7.85;;;5.70;;
49183;SDS011;35021;49.214;12.270;2022-08-25T12:36:01;8.15;;;6.35;;
49183;SDS011;35021;49.214;12.270;2022-08-25T12:41:21;8.02;;;6.10;;
49183;SDS011;35021;49.214;12.270;2022-08-25T12:44:18;7.18;;;;;
49183;SDS011;35021;49.214;12.270;2022-08-25T12:49:49;12.52;;;6.57;;
49183;SDS011;35021;49.214;12.270;2022-08-25T12:52:22;9.90;;;6.75;;
49183;SDS011;35021;49.214;12.270;2022-08-25T12:54:55;7.68;;;6.40;;
49183;SDS011;35021;49.214;12.270;2022-08-25T13:09:27;10.40;;;6.95;;
49183;SDS011;35021;49.214;12.270;2022-08-25T13:12:34;9.75;;;7.45;;
49183;SDS011;35021;49.214;12.270;2022-08-25T13:15:11;9.75;;;7.28;;
49183;SDS011;35021;49.214;12.270;2022-08-25T13:17:40;11.10;;;6.80;;
49183;SDS011;35021;49.214;12.270;2022-08-25T13:20:17;10.25;;;6.82;;
49183;SDS011;35021;49.214;12.270;2022-08-25T13:22:56;8.82;;;6.32;;
49183;SDS011;35021;49.214;12.270;2022-08-25T13:25:26;9.55;;;6.00;;
49183;SDS011;35021;49.214;12.270;2022-08-25T13:27:59;8.75;;;6.78;;
49183;SDS011;35021;49.214;12.270;2022-08-25T13:30:33;10.98;;;6.80;;
49183;SDS011;35021;49.214;12.270;2022-08-25T13:33:14;10.15;;;6.47;;
49183;SDS011;35021;49.214;12.270;2022-08-25T13:35:48;11.98;;;6.78;;
49183;SDS011;35021;49.214;12.270;2022-08-25T13:38:37;7.55;;;6.35;;
49183;SDS011;35021;49.214;12.270;2022-08-25T13:41:04;10.45;;;6.60;;
49183;SDS011;35021;49.214;12.270;2022-08-25T13:43:35;10.77;;;6.68;;
49183;SDS011;35021;49.214;12.270;2022-08-25T13:46:04;10.23;;;6.53;;
49183;SDS011;35021;49.214;12.270;2022-08-25T13:51:05;11.45;;;7.13;;
49183;SDS011;35021;49.214;12.270;2022-08-25T13:53:47;12.07;;;6.97;;
49183;SDS011;35021;49.214;12.270;2022-08-25T13:56:22;9.52;;;6.32;;
49183;SDS011;35021;49.214;12.270;2022-08-25T13:59:20;11.18;;;7.00;;
49183;SDS011;35021;49.214;12.270;2022-08-25T14:01:52;9.75;;;7.03;;
49183;SDS011;35021;49.214;12.270;2022-08-25T14:04:31;8.20;;;6.20;;
49183;SDS011;35021;49.214;12.270;2022-08-25T14:12:27;8.45;;;5.90;;
49183;SDS011;35021;49.214;12.270;2022-08-25T14:15:25;11.80;;;6.78;;
49183;SDS011;35021;49.214;12.270;2022-08-25T14:18:06;8.98;;;5.97;;
49183;SDS011;35021;49.214;12.270;2022-08-25T14:20:43;10.15;;;6.97;;
49183;SDS011;35021;49.214;12.270;2022-08-25T14:25:45;7.38;;;6.13;;
49183;SDS011;35021;49.214;12.270;2022-08-25T14:28:15;9.55;;;5.93;;
49183;SDS011;35021;49.214;12.270;2022-08-25T14:30:47;9.05;;;6.85;;
49183;SDS011;35021;49.214;12.270;2022-08-25T14:33:18;9.02;;;6.20;;
49183;SDS011;35021;49.214;12.270;2022-08-25T14:35:51;9.57;;;6.72;;
49183;SDS011;35021;49.214;12.270;2022-08-25T14:38:20;11.15;;;7.05;;
49183;SDS011;35021;49.214;12.270;2022-08-25T14:40:48;13.45;;;6.72;;
49183;SDS011;35021;49.214;12.270;2022-08-25T14:43:16;8.50;;;6.70;;
49183;SDS011;35021;49.214;12.270;2022-08-25T14:45:49;16.02;;;7.45;;
49183;SDS011;35021;49.214;12.270;2022-08-25T14:48:22;14.18;;;7.20;;
49183;SDS011;35021;49.214;12.270;2022-08-25T14:50:51;11.27;;;6.90;;
49183;SDS011;35021;49.214;12.270;2022-08-25T14:53:20;12.02;;;6.97;;
49183;SDS011;35021;49.214;12.270;2022-08-25T14:55:47;12.40;;;6.75;;
49183;SDS011;35021;49.214;12.270;2022-08-25T14:58:16;11.70;;;7.72;;
49183;SDS011;35021;49.214;12.270;2022-08-25T15:00:51;8.48;;;6.57;;
49183;SDS011;35021;49.214;12.270;2022-08-25T15:03:27;8.55;;;6.40;;
49183;SDS011;35021;49.214;12.270;2022-08-25T15:05:57;9.57;;;6.25;;
49183;SDS011;35021;49.214;12.270;2022-08-25T15:08:27;8.30;;;6.07;;
49183;SDS011;35021;49.214;12.270;2022-08-25T15:11:12;7.45;;;5.97;;
49183;SDS011;35021;49.214;12.270;2022-08-25T15:13:40;9.40;;;5.95;;
49183;SDS011;35021;49.214;12.270;2022-08-25T15:16:17;9.80;;;6.18;;
49183;SDS011;35021;49.214;12.270;2022-08-25T15:18:59;8.18;;;5.95;;
49183;SDS011;35021;49.214;12.270;2022-08-25T15:21:31;9.30;;;6.13;;
49183;SDS011;35021;49.214;12.270;2022-08-25T15:24:00;9.77;;;6.88;;
49183;SDS011;35021;49.214;12.270;2022-08-25T15:26:28;7.75;;;5.53;;
49183;SDS011;35021;49.214;12.270;2022-08-25T15:28:57;9.88;;;6.03;;
49183;SDS011;35021;49.214;12.270;2022-08-25T15:31:25;6.28;;;5.22;;
49183;SDS011;35021;49.214;12.270;2022-08-25T15:33:52;9.00;;;6.43;;
49183;SDS011;35021;49.214;12.270;2022-08-25T15:36:20;6.10;;;5.18;;
49183;SDS011;35021;49.214;12.270;2022-08-25T15:38:50;8.13;;;5.47;;
49183;SDS011;35021;49.214;12.270;2022-08-25T15:41:19;7.07;;;5.70;;
49183;SDS011;35021;49.214;12.270;2022-08-25T15:43:52;7.15;;;5.15;;
49183;SDS011;35021;49.214;12.270;2022-08-25T15:46:23;7.57;;;5.72;;
49183;SDS011;35021;49.214;12.270;2022-08-25T15:48:55;7.30;;;5.07;;
49183;SDS011;35021;49.214;12.270;2022-08-25T15:51:25;6.80;;;4.95;;
49183;SDS011;35021;49.214;12.270;2022-08-25T15:53:54;6.25;;;5.45;;
49183;SDS011;35021;49.214;12.270;2022-08-25T15:56:21;5.82;;;4.88;;
49183;SDS011;35021;49.214;12.270;2022-08-25T15:58:52;7.22;;;5.03;;
49183;SDS011;35021;49.214;12.270;2022-08-25T16:01:22;5.57;;;5.05;;
49183;SDS011;35021;49.214;12.270;2022-08-25T16:03:51;5.63;;;4.55;;
49183;SDS011;35021;49.214;12.270;2022-08-25T16:06:18;6.47;;;4.90;;
49183;SDS011;35021;49.214;12.270;2022-08-25T16:08:45;5.85;;;4.57;;
49183;SDS011;35021;49.214;12.270;2022-08-25T16:11:16;5.97;;;4.72;;
49183;SDS011;35021;49.214;12.270;2022-08-25T16:13:48;5.90;;;4.85;;
49183;SDS011;35021;49.214;12.270;2022-08-25T16:16:16;5.95;;;4.40;;
49183;SDS011;35021;49.214;12.270;2022-08-25T16:18:45;5.47;;;4.50;;
49183;SDS011;35021;49.214;12.270;2022-08-25T16:21:14;5.88;;;4.25;;
49183;SDS011;35021;49.214;12.270;2022-08-25T16:23:45;5.82;;;4.22;;
49183;SDS011;35021;49.214;12.270;2022-08-25T16:26:14;5.13;;;4.50;;
49183;SDS011;35021;49.214;12.270;2022-08-25T16:28:42;5.10;;;4.43;;
49183;SDS011;35021;49.214;12.270;2022-08-25T16:31:11;5.22;;;4.55;;
49183;SDS011;35021;49.214;12.270;2022-08-25T16:33:39;4.93;;;4.53;;
49183;SDS011;35021;49.214;12.270;2022-08-25T16:36:08;4.72;;;4.30;;
49183;SDS011;35021;49.214;12.270;2022-08-25T16:38:40;6.03;;;4.70;;
49183;SDS011;35021;49.214;12.270;2022-08-25T16:41:19;5.45;;;4.90;;
49183;SDS011;35021;49.214;12.270;2022-08-25T16:43:50;5.10;;;4.30;;
49183;SDS011;35021;49.214;12.270;2022-08-25T16:46:18;5.10;;;4.00;;
49183;SDS011;35021;49.214;12.270;2022-08-25T16:48:49;5.68;;;4.10;;
49183;SDS011;35021;49.214;12.270;2022-08-25T16:51:17;6.40;;;3.70;;
49183;SDS011;35021;49.214;12.270;2022-08-25T16:53:50;7.65;;;4.45;;
49183;SDS011;35021;49.214;12.270;2022-08-25T16:56:36;5.60;;;4.60;;
49183;SDS011;35021;49.214;12.270;2022-08-25T16:59:03;5.40;;;4.57;;
49183;SDS011;35021;49.214;12.270;2022-08-25T17:01:31;6.72;;;5.20;;
49183;SDS011;35021;49.214;12.270;2022-08-25T17:04:02;6.40;;;4.53;;
49183;SDS011;35021;49.214;12.270;2022-08-25T17:06:33;5.63;;;4.40;;
49183;SDS011;35021;49.214;12.270;2022-08-25T17:09:02;6.43;;;4.63;;
49183;SDS011;35021;49.214;12.270;2022-08-25T17:11:32;7.13;;;5.20;;
49183;SDS011;35021;49.214;12.270;2022-08-25T17:14:08;9.18;;;6.20;;
49183;SDS011;35021;49.214;12.270;2022-08-25T17:16:36;7.47;;;4.93;;
49183;SDS011;35021;49.214;12.270;2022-08-25T17:19:05;6.05;;;5.30;;
49183;SDS011;35021;49.214;12.270;2022-08-25T17:21:37;6.57;;;5.32;;
49183;SDS011;35021;49.214;12.270;2022-08-25T17:24:10;7.50;;;4.80;;